Time,TemperatureF,DewpointF,PressureIn,WindDirection,WindDirectionDegrees,WindSpeedMPH,WindSpeedGustMPH,Humidity,HourlyPrecipIn,Conditions,Clouds,dailyrainin,SolarRadiationWatts/m^2,SoftwareType,DateUTC
2013-07-02 00:01:00,47.0,42.0,-100.00,NE,39,0.0,2.0,83,0.00,,,0.00,0.000000,,2013-07-02 05:01:00,
2013-07-02 00:11:00,47.0,42.0,-100.00,NE,39,0.0,2.0,83,0.00,,,0.00,0.000000,,2013-07-02 05:11:00,
2013-07-02 00:43:00,45.0,42.0,-100.00,NNW,346,0.0,2.0,88,0.00,,,0.00,0.000000,,2013-07-02 05:43:00,
2013-07-02 00:53:00,45.0,42.0,-100.00,NNW,346,0.0,2.0,88,0.00,,,0.00,0.000000,,2013-07-02 05:53:00,
2013-07-02 01:01:00,45.0,42.0,-100.00,NNW,346,0.0,2.0,88,0.00,,,0.00,0.000000,,2013-07-02 06:01:00,
2013-07-02 01:12:00,45.0,42.0,-100.00,NNW,346,0.0,2.0,88,0.00,,,0.00,0.000000,,2013-07-02 06:12:00,
2013-07-02 01:43:00,44.0,40.0,-100.00,NE,37,0.0,2.0,87,0.00,,,0.00,0.000000,,2013-07-02 06:43:00,
2013-07-02 01:53:00,44.0,40.0,-100.00,NE,37,0.0,2.0,87,0.00,,,0.00,0.000000,,2013-07-02 06:53:00,
2013-07-02 02:01:00,44.0,40.0,-100.00,NE,37,0.0,2.0,87,0.00,,,0.00,0.000000,,2013-07-02 07:01:00,
2013-07-02 02:12:00,44.0,40.0,-100.00,NE,37,0.0,2.0,87,0.00,,,0.00,0.000000,,2013-07-02 07:12:00,
2013-07-02 02:44:00,41.0,39.0,-100.00,NW,325,0.0,0.0,92,0.00,,,0.00,0.000000,,2013-07-02 07:44:00,
2013-07-02 02:53:00,41.0,39.0,-100.00,NW,325,0.0,0.0,92,0.00,,,0.00,0.000000,,2013-07-02 07:53:00,
2013-07-02 03:02:00,41.0,39.0,-100.00,NW,325,0.0,0.0,92,0.00,,,0.00,0.000000,,2013-07-02 08:02:00,
2013-07-02 03:12:00,41.0,39.0,-100.00,NW,325,0.0,0.0,92,0.00,,,0.00,0.000000,,2013-07-02 08:12:00,
2013-07-02 03:44:00,40.0,39.0,-100.00,NW,318,0.0,0.0,96,0.00,,,0.00,0.000000,,2013-07-02 08:44:00,
2013-07-02 03:53:00,40.0,39.0,-100.00,NW,318,0.0,0.0,96,0.00,,,0.00,0.000000,,2013-07-02 08:53:00,
2013-07-02 04:02:00,40.0,39.0,-100.00,NW,318,0.0,0.0,96,0.00,,,0.00,0.000000,,2013-07-02 09:02:00,
2013-07-02 04:11:00,40.0,39.0,-100.00,NW,318,0.0,0.0,96,0.00,,,0.00,0.000000,,2013-07-02 09:11:00,
2013-07-02 04:43:00,39.0,38.0,-100.00,WNW,299,0.0,0.0,97,0.00,,,0.00,0.000000,,2013-07-02 09:43:00,
2013-07-02 04:52:00,39.0,38.0,-100.00,WNW,299,0.0,0.0,97,0.00,,,0.00,0.000000,,2013-07-02 09:52:00,
2013-07-02 05:01:00,39.0,38.0,-100.00,WNW,299,0.0,0.0,97,0.00,,,0.00,0.000000,,2013-07-02 10:01:00,
2013-07-02 05:11:00,39.0,38.0,-100.00,WNW,299,0.0,0.0,97,0.00,,,0.00,0.000000,,2013-07-02 10:11:00,
2013-07-02 05:44:00,38.0,37.0,-100.00,WNW,299,0.0,0.0,97,0.00,,,0.00,1.000000,,2013-07-02 10:44:00,
2013-07-02 05:52:00,38.0,37.0,-100.00,WNW,299,0.0,0.0,97,0.00,,,0.00,1.000000,,2013-07-02 10:52:00,
2013-07-02 06:01:00,38.0,37.0,-100.00,WNW,299,0.0,0.0,97,0.00,,,0.00,1.000000,,2013-07-02 11:01:00,
2013-07-02 06:11:00,38.0,37.0,-100.00,WNW,299,0.0,0.0,97,0.00,,,0.00,1.000000,,2013-07-02 11:11:00,
2013-07-02 06:33:00,40.0,39.0,-100.00,SW,233,0.0,0.0,97,0.00,,,0.00,33.000000,,2013-07-02 11:33:00,
2013-07-02 06:42:00,40.0,39.0,-100.00,SW,233,0.0,0.0,97,0.00,,,0.00,33.000000,,2013-07-02 11:42:00,
2013-07-02 06:52:00,40.0,39.0,-100.00,SW,233,0.0,0.0,97,0.00,,,0.00,33.000000,,2013-07-02 11:52:00,
2013-07-02 07:01:00,40.0,39.0,-100.00,SW,233,0.0,0.0,97,0.00,,,0.00,33.000000,,2013-07-02 12:01:00,
2013-07-02 07:11:00,40.0,39.0,-100.00,SW,233,0.0,0.0,97,0.00,,,0.00,33.000000,,2013-07-02 12:11:00,
2013-07-02 07:43:00,53.0,46.0,-100.00,WSW,251,0.0,0.0,78,0.00,,,0.00,225.000000,,2013-07-02 12:43:00,
2013-07-02 07:52:00,53.0,46.0,-100.00,WSW,251,0.0,0.0,78,0.00,,,0.00,225.000000,,2013-07-02 12:52:00,
2013-07-02 08:01:00,53.0,46.0,-100.00,WSW,251,0.0,0.0,78,0.00,,,0.00,225.000000,,2013-07-02 13:01:00,
2013-07-02 08:11:00,53.0,46.0,-100.00,WSW,251,0.0,0.0,78,0.00,,,0.00,225.000000,,2013-07-02 13:11:00,
2013-07-02 08:43:00,60.0,44.0,-100.00,ESE,122,3.0,4.0,56,0.00,,,0.00,389.000000,,2013-07-02 13:43:00,
2013-07-02 08:52:00,60.0,44.0,-100.00,ESE,122,3.0,4.0,56,0.00,,,0.00,389.000000,,2013-07-02 13:52:00,
2013-07-02 09:02:00,60.0,44.0,-100.00,ESE,122,3.0,4.0,56,0.00,,,0.00,389.000000,,2013-07-02 14:02:00,
2013-07-02 09:11:00,60.0,44.0,-100.00,ESE,122,3.0,4.0,56,0.00,,,0.00,389.000000,,2013-07-02 14:11:00,
2013-07-02 09:43:00,67.0,47.0,-100.00,SE,136,3.0,5.0,48,0.00,,,0.00,581.000000,,2013-07-02 14:43:00,
2013-07-02 09:53:00,67.0,47.0,-100.00,SE,136,3.0,5.0,48,0.00,,,0.00,581.000000,,2013-07-02 14:53:00,
2013-07-02 10:02:00,67.0,47.0,-100.00,SE,136,3.0,5.0,48,0.00,,,0.00,581.000000,,2013-07-02 15:02:00,
2013-07-02 10:11:00,67.0,47.0,-100.00,SE,136,3.0,5.0,48,0.00,,,0.00,581.000000,,2013-07-02 15:11:00,
2013-07-02 10:44:00,71.0,40.0,-100.00,SSE,163,5.0,8.0,33,0.00,,,0.00,756.000000,,2013-07-02 15:44:00,
2013-07-02 10:53:00,71.0,40.0,-100.00,SSE,163,5.0,8.0,33,0.00,,,0.00,756.000000,,2013-07-02 15:53:00,
2013-07-02 11:01:00,71.0,40.0,-100.00,SSE,163,5.0,8.0,33,0.00,,,0.00,756.000000,,2013-07-02 16:01:00,
2013-07-02 11:12:00,71.0,40.0,-100.00,SSE,163,5.0,8.0,33,0.00,,,0.00,756.000000,,2013-07-02 16:12:00,
2013-07-02 11:43:00,73.0,43.0,-100.00,ENE,65,3.0,8.0,34,0.00,,,0.00,893.000000,,2013-07-02 16:43:00,
2013-07-02 11:52:00,73.0,43.0,-100.00,ENE,65,3.0,8.0,34,0.00,,,0.00,893.000000,,2013-07-02 16:52:00,
2013-07-02 12:02:00,73.0,43.0,-100.00,ENE,65,3.0,8.0,34,0.00,,,0.00,893.000000,,2013-07-02 17:02:00,
2013-07-02 12:12:00,73.0,43.0,-100.00,ENE,65,3.0,8.0,34,0.00,,,0.00,893.000000,,2013-07-02 17:12:00,
2013-07-02 12:43:00,74.0,43.0,-100.00,ENE,60,4.0,9.0,33,0.00,,,0.00,979.000000,,2013-07-02 17:43:00,
2013-07-02 12:53:00,74.0,43.0,-100.00,ENE,60,4.0,9.0,33,0.00,,,0.00,979.000000,,2013-07-02 17:53:00,
2013-07-02 13:02:00,74.0,43.0,-100.00,ENE,60,4.0,9.0,33,0.00,,,0.00,979.000000,,2013-07-02 18:02:00,
2013-07-02 13:12:00,74.0,43.0,-100.00,ENE,60,4.0,9.0,33,0.00,,,0.00,979.000000,,2013-07-02 18:12:00,
2013-07-02 13:43:00,76.0,42.0,-100.00,SE,135,3.0,9.0,30,0.00,,,0.00,1018.000000,,2013-07-02 18:43:00,
2013-07-02 13:53:00,76.0,42.0,-100.00,SE,135,3.0,9.0,30,0.00,,,0.00,1018.000000,,2013-07-02 18:53:00,
2013-07-02 14:01:00,76.0,42.0,-100.00,SE,135,3.0,9.0,30,0.00,,,0.00,1018.000000,,2013-07-02 19:01:00,
2013-07-02 14:12:00,76.0,42.0,-100.00,SE,135,3.0,9.0,30,0.00,,,0.00,1018.000000,,2013-07-02 19:12:00,
2013-07-02 14:43:00,77.0,40.0,-100.00,ESE,111,5.0,10.0,27,0.00,,,0.00,1006.000000,,2013-07-02 19:43:00,
2013-07-02 14:53:00,77.0,40.0,-100.00,ESE,111,5.0,10.0,27,0.00,,,0.00,1006.000000,,2013-07-02 19:53:00,
2013-07-02 15:02:00,77.0,40.0,-100.00,ESE,111,5.0,10.0,27,0.00,,,0.00,1006.000000,,2013-07-02 20:02:00,
2013-07-02 15:11:00,77.0,40.0,-100.00,ESE,111,5.0,10.0,27,0.00,,,0.00,1006.000000,,2013-07-02 20:11:00,
2013-07-02 15:43:00,78.0,42.0,-100.00,NE,54,4.0,12.0,28,0.00,,,0.00,936.000000,,2013-07-02 20:43:00,
2013-07-02 15:52:00,78.0,42.0,-100.00,NE,54,4.0,12.0,28,0.00,,,0.00,936.000000,,2013-07-02 20:52:00,
2013-07-02 16:02:00,78.0,42.0,-100.00,NE,54,4.0,12.0,28,0.00,,,0.00,936.000000,,2013-07-02 21:02:00,
2013-07-02 16:11:00,78.0,42.0,-100.00,NE,54,4.0,12.0,28,0.00,,,0.00,936.000000,,2013-07-02 21:11:00,
2013-07-02 16:44:00,79.0,43.0,-100.00,ESE,118,4.0,9.0,28,0.00,,,0.00,797.000000,,2013-07-02 21:44:00,
2013-07-02 16:52:00,79.0,43.0,-100.00,ESE,118,4.0,9.0,28,0.00,,,0.00,797.000000,,2013-07-02 21:52:00,
2013-07-02 17:01:00,79.0,43.0,-100.00,ESE,118,4.0,9.0,28,0.00,,,0.00,797.000000,,2013-07-02 22:01:00,
2013-07-02 17:11:00,79.0,43.0,-100.00,ESE,118,4.0,9.0,28,0.00,,,0.00,797.000000,,2013-07-02 22:11:00,
2013-07-02 17:43:00,79.0,42.0,-100.00,NE,39,3.0,7.0,27,0.00,,,0.00,658.000000,,2013-07-02 22:43:00,
2013-07-02 17:53:00,79.0,42.0,-100.00,NE,39,3.0,7.0,27,0.00,,,0.00,658.000000,,2013-07-02 22:53:00,
2013-07-02 18:01:00,79.0,42.0,-100.00,NE,39,3.0,7.0,27,0.00,,,0.00,658.000000,,2013-07-02 23:01:00,
2013-07-02 18:11:00,79.0,42.0,-100.00,NE,39,3.0,7.0,27,0.00,,,0.00,658.000000,,2013-07-02 23:11:00,
2013-07-02 18:44:00,80.0,43.0,-100.00,NW,315,2.0,5.0,27,0.00,,,0.00,481.000000,,2013-07-02 23:44:00,
2013-07-02 18:52:00,80.0,43.0,-100.00,NW,315,2.0,5.0,27,0.00,,,0.00,481.000000,,2013-07-02 23:52:00,
2013-07-02 19:01:00,80.0,43.0,-100.00,NW,315,2.0,5.0,27,0.00,,,0.00,481.000000,,2013-07-03 00:01:00,
2013-07-02 19:11:00,80.0,43.0,-100.00,NW,315,2.0,5.0,27,0.00,,,0.00,481.000000,,2013-07-03 00:11:00,
2013-07-02 19:44:00,78.0,48.0,-100.00,SE,134,1.0,3.0,35,0.00,,,-99.99,293.000000,,2013-07-03 00:44:00,
2013-07-02 19:52:00,78.0,48.0,-100.00,SE,134,1.0,3.0,35,0.00,,,-99.99,293.000000,,2013-07-03 00:52:00,
2013-07-02 20:01:00,78.0,48.0,-100.00,SE,134,1.0,3.0,35,0.00,,,-99.99,293.000000,,2013-07-03 01:01:00,
2013-07-02 20:13:00,68.0,42.0,-100.00,SE,126,3.0,9.0,39,-99.99,,,0.00,51.000000,,2013-07-03 01:13:00,
2013-07-02 20:43:00,68.0,42.0,-100.00,SE,126,3.0,9.0,39,-99.99,,,0.00,51.000000,,2013-07-03 01:43:00,
2013-07-02 20:59:00,68.0,42.0,-100.00,SE,126,3.0,9.0,39,-99.99,,,0.00,51.000000,,2013-07-03 01:59:00,
2013-07-02 21:05:00,68.0,42.0,-100.00,SE,126,3.0,9.0,39,-99.99,,,0.00,51.000000,,2013-07-03 02:05:00,
2013-07-02 21:13:00,64.0,40.0,-100.00,SSE,162,3.0,7.0,42,0.00,,,0.00,7.000000,,2013-07-03 02:13:00,
2013-07-02 21:46:00,64.0,40.0,-100.00,SSE,162,3.0,7.0,42,0.00,,,0.00,7.000000,,2013-07-03 02:46:00,
2013-07-02 21:59:00,64.0,40.0,-100.00,SSE,162,3.0,7.0,42,0.00,,,0.00,7.000000,,2013-07-03 02:59:00,
2013-07-02 22:04:00,64.0,40.0,-100.00,SSE,162,3.0,7.0,42,0.00,,,0.00,7.000000,,2013-07-03 03:04:00,
2013-07-02 22:36:00,55.0,43.0,-100.00,North,2,0.0,4.0,64,0.00,,,0.00,0.000000,,2013-07-03 03:36:00,
2013-07-02 22:49:00,55.0,43.0,-100.00,North,2,0.0,4.0,64,0.00,,,0.00,0.000000,,2013-07-03 03:49:00,
2013-07-02 22:58:00,55.0,43.0,-100.00,North,2,0.0,4.0,64,0.00,,,0.00,0.000000,,2013-07-03 03:58:00,
2013-07-02 23:01:00,55.0,43.0,-100.00,North,2,0.0,4.0,64,0.00,,,0.00,0.000000,,2013-07-03 04:01:00,
2013-07-02 23:11:00,55.0,43.0,-100.00,North,2,0.0,4.0,64,0.00,,,0.00,0.000000,,2013-07-03 04:11:00,
2013-07-02 23:34:00,50.0,44.0,-100.00,NW,321,0.0,0.0,80,0.00,,,0.00,0.000000,,2013-07-03 04:34:00,
2013-07-02 23:43:00,50.0,44.0,-100.00,NW,321,0.0,0.0,80,0.00,,,0.00,0.000000,,2013-07-03 04:43:00,
2013-07-02 23:52:00,50.0,44.0,-100.00,NW,321,0.0,0.0,80,0.00,,,0.00,0.000000,,2013-07-03 04:52:00,